sensor_id;sensor_type;location;lat;lon;timestamp;pressure;altitude;pressure_sealevel;temperature;humidity
75891;BME280;64571;47.512;19.054;2022-11-04T00:01:20;100325.84;;;11.15;83.68
75891;BME280;64571;47.512;19.054;2022-11-04T00:04:25;100317.19;;;11.16;83.62
75891;BME280;64571;47.512;19.054;2022-11-04T00:07:27;100312.53;;;11.12;83.84
75891;BME280;64571;47.512;19.054;2022-11-04T00:10:56;100296.84;;;11.02;83.89
75891;BME280;64571;47.512;19.054;2022-11-04T00:14:17;100293.47;;;11.05;83.79
75891;BME280;64571;47.512;19.054;2022-11-04T00:17:20;100311.94;;;11.15;83.80
75891;BME280;64571;47.512;19.054;2022-11-04T00:20:25;100301.34;;;11.17;83.75
75891;BME280;64571;47.512;19.054;2022-11-04T00:23:46;100292.56;;;11.10;84.05
75891;BME280;64571;47.512;19.054;2022-11-04T00:27:11;100288.34;;;11.12;84.05
75891;BME280;64571;47.512;19.054;2022-11-04T00:30:33;100270.31;;;11.10;83.71
75891;BME280;64571;47.512;19.054;2022-11-04T00:33:35;100282.59;;;11.23;83.64
75891;BME280;64571;47.512;19.054;2022-11-04T00:36:37;100276.38;;;11.12;84.05
75891;BME280;64571;47.512;19.054;2022-11-04T00:39:40;100253.19;;;11.03;84.11
75891;BME280;64571;47.512;19.054;2022-11-04T00:42:43;100251.63;;;10.97;84.31
75891;BME280;64571;47.512;19.054;2022-11-04T00:45:46;100241.63;;;10.96;84.46
75891;BME280;64571;47.512;19.054;2022-11-04T00:48:48;100256.41;;;11.10;84.32
75891;BME280;64571;47.512;19.054;2022-11-04T00:51:51;100250.34;;;11.08;84.52
75891;BME280;64571;47.512;19.054;2022-11-04T00:54:53;100231.03;;;10.98;84.48
75891;BME280;64571;47.512;19.054;2022-11-04T00:57:57;100233.34;;;11.09;84.51
75891;BME280;64571;47.512;19.054;2022-11-04T01:01:00;100214.88;;;11.00;84.59
75891;BME280;64571;47.512;19.054;2022-11-04T01:04:08;100209.59;;;10.98;84.75
75891;BME280;64571;47.512;19.054;2022-11-04T01:07:10;100224.38;;;11.12;84.61
75891;BME280;64571;47.512;19.054;2022-11-04T01:10:13;100219.75;;;11.08;84.50
75891;BME280;64571;47.512;19.054;2022-11-04T01:13:15;100226.94;;;11.09;84.47
75891;BME280;64571;47.512;19.054;2022-11-04T01:16:17;100235.56;;;11.07;85.12
75891;BME280;64571;47.512;19.054;2022-11-04T01:19:20;100228.09;;;11.08;85.32
75891;BME280;64571;47.512;19.054;2022-11-04T01:22:23;100230.34;;;11.06;85.51
75891;BME280;64571;47.512;19.054;2022-11-04T01:25:25;100220.25;;;11.10;85.41
75891;BME280;64571;47.512;19.054;2022-11-04T01:28:27;100220.75;;;11.12;85.26
75891;BME280;64571;47.512;19.054;2022-11-04T01:31:30;100205.31;;;11.06;85.20
75891;BME280;64571;47.512;19.054;2022-11-04T01:34:32;100201.81;;;11.14;84.89
75891;BME280;64571;47.512;19.054;2022-11-04T01:37:39;100213.87;;;11.23;85.08
75891;BME280;64571;47.512;19.054;2022-11-04T01:40:41;100202.97;;;11.13;85.45
75891;BME280;64571;47.512;19.054;2022-11-04T01:43:54;100181.41;;;11.05;85.47
75891;BME280;64571;47.512;19.054;2022-11-04T01:46:57;100201.41;;;11.21;85.43
75891;BME280;64571;47.512;19.054;2022-11-04T01:50:05;100183.28;;;11.23;85.38
75891;BME280;64571;47.512;19.054;2022-11-04T01:53:15;100151.75;;;11.14;85.42
75891;BME280;64571;47.512;19.054;2022-11-04T01:56:19;100158.25;;;11.23;85.61
75891;BME280;64571;47.512;19.054;2022-11-04T01:59:28;100151.53;;;11.24;85.57
75891;BME280;64571;47.512;19.054;2022-11-04T02:02:32;100146.59;;;11.21;85.97
75891;BME280;64571;47.512;19.054;2022-11-04T02:05:34;100129.91;;;11.07;86.18
75891;BME280;64571;47.512;19.054;2022-11-04T02:08:38;100140.41;;;11.24;85.99
75891;BME280;64571;47.512;19.054;2022-11-04T02:11:40;100122.91;;;11.10;86.20
75891;BME280;64571;47.512;19.054;2022-11-04T02:15:02;100140.03;;;11.17;86.49
75891;BME280;64571;47.512;19.054;2022-11-04T02:18:28;100137.75;;;11.19;86.40
75891;BME280;64571;47.512;19.054;2022-11-04T02:35:41;100122.19;;;11.04;87.13
75891;BME280;64571;47.512;19.054;2022-11-04T02:38:52;100115.28;;;11.02;87.19
75891;BME280;64571;47.512;19.054;2022-11-04T02:42:01;100112.59;;;11.10;86.85
75891;BME280;64571;47.512;19.054;2022-11-04T02:45:32;100100.75;;;11.05;87.12
75891;BME280;64571;47.512;19.054;2022-11-04T02:48:48;100077.16;;;10.88;87.46
75891;BME280;64571;47.512;19.054;2022-11-04T02:52:09;100089.09;;;11.03;87.31
75891;BME280;64571;47.512;19.054;2022-11-04T02:55:21;100087.47;;;11.02;87.22
75891;BME280;64571;47.512;19.054;2022-11-04T02:58:29;100087.56;;;11.10;86.99
75891;BME280;64571;47.512;19.054;2022-11-04T03:01:36;100085.22;;;11.04;87.13
75891;BME280;64571;47.512;19.054;2022-11-04T03:04:44;100088.28;;;11.02;87.26
75891;BME280;64571;47.512;19.054;2022-11-04T03:07:50;100096.53;;;10.94;87.71
75891;BME280;64571;47.512;19.054;2022-11-04T03:10:58;100076.66;;;10.86;87.70
75891;BME280;64571;47.512;19.054;2022-11-04T03:14:09;100085.41;;;10.94;87.55
75891;BME280;64571;47.512;19.054;2022-11-04T03:17:31;100101.16;;;10.98;87.73
75891;BME280;64571;47.512;19.054;2022-11-04T03:20:40;100085.00;;;11.00;87.71
75891;BME280;64571;47.512;19.054;2022-11-04T03:23:44;100076.66;;;11.00;87.52
75891;BME280;64571;47.512;19.054;2022-11-04T03:26:54;100063.06;;;10.99;87.47
75891;BME280;64571;47.512;19.054;2022-11-04T03:30:09;100035.16;;;10.90;87.32
75891;BME280;64571;47.512;19.054;2022-11-04T03:36:34;100048.53;;;11.02;87.33
75891;BME280;64571;47.512;19.054;2022-11-04T03:39:36;100051.19;;;11.07;87.12
75891;BME280;64571;47.512;19.054;2022-11-04T03:42:44;100042.75;;;10.98;87.09
75891;BME280;64571;47.512;19.054;2022-11-04T03:45:48;100047.00;;;10.96;87.12
75891;BME280;64571;47.512;19.054;2022-11-04T03:48:52;100039.47;;;10.96;87.09
75891;BME280;64571;47.512;19.054;2022-11-04T03:51:56;100012.72;;;10.86;86.82
75891;BME280;64571;47.512;19.054;2022-11-04T03:54:59;100031.75;;;10.93;86.82
75891;BME280;64571;47.512;19.054;2022-11-04T03:58:36;100025.38;;;10.93;86.73
75891;BME280;64571;47.512;19.054;2022-11-04T04:01:51;100024.03;;;10.90;86.66
75891;BME280;64571;47.512;19.054;2022-11-04T04:05:00;100018.88;;;10.83;86.70
75891;BME280;64571;47.512;19.054;2022-11-04T04:11:38;100008.38;;;10.80;86.73
75891;BME280;64571;47.512;19.054;2022-11-04T04:14:47;99987.81;;;10.68;86.78
75891;BME280;64571;47.512;19.054;2022-11-04T04:18:14;99980.78;;;10.70;86.80
75891;BME280;64571;47.512;19.054;2022-11-04T04:21:21;99990.59;;;10.81;86.77
75891;BME280;64571;47.512;19.054;2022-11-04T04:24:29;99971.03;;;10.73;86.69
75891;BME280;64571;47.512;19.054;2022-11-04T04:27:54;99985.84;;;10.82;86.57
75891;BME280;64571;47.512;19.054;2022-11-04T04:30:58;99985.53;;;10.83;86.47
75891;BME280;64571;47.512;19.054;2022-11-04T04:34:01;99990.59;;;10.81;86.51
75891;BME280;64571;47.512;19.054;2022-11-04T04:37:08;99995.00;;;10.82;86.61
75891;BME280;64571;47.512;19.054;2022-11-04T04:40:16;99994.47;;;10.80;86.67
75891;BME280;64571;47.512;19.054;2022-11-04T04:43:41;99986.06;;;10.85;86.56
75891;BME280;64571;47.512;19.054;2022-11-04T04:47:03;99979.03;;;10.74;86.78
75891;BME280;64571;47.512;19.054;2022-11-04T04:50:08;99975.25;;;10.70;86.95
75891;BME280;64571;47.512;19.054;2022-11-04T04:53:11;99966.91;;;10.70;86.81
75891;BME280;64571;47.512;19.054;2022-11-04T04:56:13;99966.78;;;10.75;86.72
75891;BME280;64571;47.512;19.054;2022-11-04T04:59:16;99970.59;;;10.79;86.64
75891;BME280;64571;47.512;19.054;2022-11-04T05:02:18;99962.37;;;10.74;86.72
75891;BME280;64571;47.512;19.054;2022-11-04T05:05:21;99960.12;;;10.76;86.50
75891;BME280;64571;47.512;19.054;2022-11-04T05:08:24;99952.19;;;10.70;86.44
75891;BME280;64571;47.512;19.054;2022-11-04T05:11:26;99942.09;;;10.60;86.27
75891;BME280;64571;47.512;19.054;2022-11-04T05:14:28;99946.41;;;10.52;86.23
75891;BME280;64571;47.512;19.054;2022-11-04T05:17:31;99970.41;;;10.62;86.01
75891;BME280;64571;47.512;19.054;2022-11-04T05:20:35;99977.31;;;10.51;86.25
75891;BME280;64571;47.512;19.054;2022-11-04T05:23:39;99984.72;;;10.55;86.11
75891;BME280;64571;47.512;19.054;2022-11-04T05:26:42;99981.41;;;10.53;86.25
75891;BME280;64571;47.512;19.054;2022-11-04T05:29:44;99989.56;;;10.50;86.26
75891;BME280;64571;47.512;19.054;2022-11-04T05:32:46;99984.50;;;10.52;86.19
75891;BME280;64571;47.512;19.054;2022-11-04T05:35:49;99957.53;;;10.25;86.54
75891;BME280;64571;47.512;19.054;2022-11-04T05:38:52;99985.41;;;10.33;86.81
75891;BME280;64571;47.512;19.054;2022-11-04T05:41:56;99985.72;;;10.32;86.85
75891;BME280;64571;47.512;19.054;2022-11-04T05:44:59;99977.69;;;10.30;87.02
75891;BME280;64571;47.512;19.054;2022-11-04T05:48:04;99948.88;;;10.26;86.91
75891;BME280;64571;47.512;19.054;2022-11-04T05:51:06;99957.75;;;10.28;87.09
75891;BME280;64571;47.512;19.054;2022-11-04T05:54:09;99957.53;;;10.38;86.89
75891;BME280;64571;47.512;19.054;2022-11-04T05:57:11;99965.66;;;10.49;86.56
75891;BME280;64571;47.512;19.054;2022-11-04T06:00:14;99961.44;;;10.51;86.41
75891;BME280;64571;47.512;19.054;2022-11-04T06:03:16;99972.88;;;10.50;86.25
75891;BME280;64571;47.512;19.054;2022-11-04T06:06:20;99973.06;;;10.53;86.22
75891;BME280;64571;47.512;19.054;2022-11-04T06:09:23;99971.13;;;10.54;86.18
75891;BME280;64571;47.512;19.054;2022-11-04T06:12:39;99977.09;;;10.47;86.28
75891;BME280;64571;47.512;19.054;2022-11-04T06:15:42;99965.75;;;10.30;86.54
75891;BME280;64571;47.512;19.054;2022-11-04T06:18:44;99993.03;;;10.42;86.47
75891;BME280;64571;47.512;19.054;2022-11-04T06:21:47;99983.78;;;10.32;86.93
75891;BME280;64571;47.512;19.054;2022-11-04T06:24:49;99985.75;;;10.46;86.57
75891;BME280;64571;47.512;19.054;2022-11-04T06:27:52;99988.31;;;10.42;86.57
75891;BME280;64571;47.512;19.054;2022-11-04T06:30:57;99990.88;;;10.38;86.37
75891;BME280;64571;47.512;19.054;2022-11-04T06:33:59;99998.63;;;10.09;86.97
75891;BME280;64571;47.512;19.054;2022-11-04T06:37:02;99990.78;;;10.11;87.18
75891;BME280;64571;47.512;19.054;2022-11-04T06:40:05;99995.44;;;10.15;86.97
75891;BME280;64571;47.512;19.054;2022-11-04T06:43:08;100002.41;;;10.13;86.92
75891;BME280;64571;47.512;19.054;2022-11-04T06:46:26;99995.63;;;10.05;87.10
75891;BME280;64571;47.512;19.054;2022-11-04T06:49:28;99988.53;;;10.13;86.89
75891;BME280;64571;47.512;19.054;2022-11-04T06:52:31;99989.38;;;10.13;86.73
75891;BME280;64571;47.512;19.054;2022-11-04T06:55:38;99991.63;;;10.11;86.65
75891;BME280;64571;47.512;19.054;2022-11-04T06:58:40;99992.84;;;10.05;86.79
75891;BME280;64571;47.512;19.054;2022-11-04T07:01:43;99987.59;;;10.18;86.39
75891;BME280;64571;47.512;19.054;2022-11-04T07:04:46;99975.25;;;9.96;86.67
75891;BME280;64571;47.512;19.054;2022-11-04T07:07:48;99992.97;;;10.14;86.23
75891;BME280;64571;47.512;19.054;2022-11-04T07:10:53;99976.41;;;10.09;86.06
75891;BME280;64571;47.512;19.054;2022-11-04T07:13:56;99968.78;;;10.01;86.19
75891;BME280;64571;47.512;19.054;2022-11-04T07:16:59;99989.66;;;10.12;86.11
75891;BME280;64571;47.512;19.054;2022-11-04T07:20:02;99986.97;;;10.07;86.17
75891;BME280;64571;47.512;19.054;2022-11-04T07:23:06;99982.28;;;10.21;85.70
75891;BME280;64571;47.512;19.054;2022-11-04T07:26:10;99990.78;;;10.11;85.99
75891;BME280;64571;47.512;19.054;2022-11-04T07:29:13;100002.34;;;10.18;85.77
75891;BME280;64571;47.512;19.054;2022-11-04T07:32:15;100001.59;;;10.12;86.04
75891;BME280;64571;47.512;19.054;2022-11-04T07:35:18;99980.63;;;10.20;85.52
75891;BME280;64571;47.512;19.054;2022-11-04T07:38:21;99975.28;;;10.10;85.58
75891;BME280;64571;47.512;19.054;2022-11-04T07:41:23;99981.88;;;10.14;85.76
75891;BME280;64571;47.512;19.054;2022-11-04T07:44:25;99969.59;;;10.01;85.84
75891;BME280;64571;47.512;19.054;2022-11-04T07:47:29;99987.09;;;10.15;85.66
75891;BME280;64571;47.512;19.054;2022-11-04T07:50:32;99982.56;;;10.06;85.78
75891;BME280;64571;47.512;19.054;2022-11-04T07:53:35;99958.50;;;10.01;85.58
75891;BME280;64571;47.512;19.054;2022-11-04T07:56:37;99979.50;;;10.21;85.22
75891;BME280;64571;47.512;19.054;2022-11-04T07:59:40;99975.16;;;10.15;85.46
75891;BME280;64571;47.512;19.054;2022-11-04T08:02:43;99962.59;;;10.18;85.19
75891;BME280;64571;47.512;19.054;2022-11-04T08:05:46;99958.72;;;10.19;85.23
75891;BME280;64571;47.512;19.054;2022-11-04T08:08:49;99950.06;;;10.06;85.35
75891;BME280;64571;47.512;19.054;2022-11-04T08:11:55;99954.59;;;10.16;85.07
75891;BME280;64571;47.512;19.054;2022-11-04T08:14:58;99929.91;;;10.01;84.97
75891;BME280;64571;47.512;19.054;2022-11-04T08:18:01;99938.25;;;10.14;84.91
75891;BME280;64571;47.512;19.054;2022-11-04T08:21:03;99931.38;;;10.26;84.64
75891;BME280;64571;47.512;19.054;2022-11-04T08:24:06;99937.94;;;10.16;84.76
75891;BME280;64571;47.512;19.054;2022-11-04T08:27:08;99929.81;;;10.06;84.67
75891;BME280;64571;47.512;19.054;2022-11-04T08:30:11;99945.28;;;10.26;84.49
75891;BME280;64571;47.512;19.054;2022-11-04T08:33:13;99938.91;;;10.25;84.33
75891;BME280;64571;47.512;19.054;2022-11-04T08:36:30;99940.25;;;10.28;84.22
75891;BME280;64571;47.512;19.054;2022-11-04T08:39:33;99937.75;;;10.26;84.40
75891;BME280;64571;47.512;19.054;2022-11-04T08:42:35;99940.53;;;10.26;84.44
75891;BME280;64571;47.512;19.054;2022-11-04T08:45:43;99932.22;;;10.26;84.46
75891;BME280;64571;47.512;19.054;2022-11-04T08:48:47;99920.88;;;10.09;84.52
75891;BME280;64571;47.512;19.054;2022-11-04T08:51:50;99925.00;;;10.25;84.46
75891;BME280;64571;47.512;19.054;2022-11-04T08:54:58;99899.06;;;10.16;84.31
75891;BME280;64571;47.512;19.054;2022-11-04T08:58:00;99901.44;;;10.09;84.50
75891;BME280;64571;47.512;19.054;2022-11-04T09:01:04;99927.41;;;10.32;84.40
75891;BME280;64571;47.512;19.054;2022-11-04T09:04:06;99929.84;;;10.33;84.13
75891;BME280;64571;47.512;19.054;2022-11-04T09:07:11;99915.88;;;10.38;83.98
75891;BME280;64571;47.512;19.054;2022-11-04T09:10:13;99909.69;;;10.42;83.64
75891;BME280;64571;47.512;19.054;2022-11-04T09:13:16;99907.72;;;10.56;83.33
75891;BME280;64571;47.512;19.054;2022-11-04T09:16:18;99902.41;;;10.46;83.03
75891;BME280;64571;47.512;19.054;2022-11-04T09:19:21;99900.81;;;10.53;83.18
75891;BME280;64571;47.512;19.054;2022-11-04T09:22:23;99903.00;;;10.43;83.09
75891;BME280;64571;47.512;19.054;2022-11-04T09:25:26;99903.09;;;10.51;82.99
75891;BME280;64571;47.512;19.054;2022-11-04T09:28:28;99903.44;;;10.50;83.01
75891;BME280;64571;47.512;19.054;2022-11-04T09:31:31;99883.25;;;10.30;83.52
75891;BME280;64571;47.512;19.054;2022-11-04T09:34:33;99886.22;;;10.20;83.85
75891;BME280;64571;47.512;19.054;2022-11-04T09:37:36;99878.41;;;10.22;83.87
75891;BME280;64571;47.512;19.054;2022-11-04T09:40:38;99902.28;;;10.37;83.86
75891;BME280;64571;47.512;19.054;2022-11-04T09:46:53;99875.81;;;10.12;84.10
75891;BME280;64571;47.512;19.054;2022-11-04T09:49:59;99873.34;;;10.10;84.29
75891;BME280;64571;47.512;19.054;2022-11-04T09:53:26;99887.28;;;10.24;84.40
75891;BME280;64571;47.512;19.054;2022-11-04T09:56:36;99883.25;;;10.30;84.09
75891;BME280;64571;47.512;19.054;2022-11-04T09:59:38;99855.59;;;10.25;84.25
75891;BME280;64571;47.512;19.054;2022-11-04T10:07:03;99874.50;;;10.37;84.84
75891;BME280;64571;47.512;19.054;2022-11-04T10:14:08;99853.41;;;10.22;85.37
75891;BME280;64571;47.512;19.054;2022-11-04T10:24:37;99812.50;;;10.00;87.94
75891;BME280;64571;47.512;19.054;2022-11-04T10:27:44;99812.16;;;10.02;87.88
75891;BME280;64571;47.512;19.054;2022-11-04T10:30:49;99833.03;;;10.13;87.91
75891;BME280;64571;47.512;19.054;2022-11-04T10:34:16;99833.03;;;10.13;87.72
75891;BME280;64571;47.512;19.054;2022-11-04T10:37:25;99830.66;;;10.20;88.31
75891;BME280;64571;47.512;19.054;2022-11-04T10:40:32;99803.13;;;10.10;87.86
75891;BME280;64571;47.512;19.054;2022-11-04T10:43:39;99805.47;;;10.03;87.54
75891;BME280;64571;47.512;19.054;2022-11-04T10:47:14;99798.88;;;10.12;88.46
75891;BME280;64571;47.512;19.054;2022-11-04T10:53:43;99817.00;;;10.37;87.08
75891;BME280;64571;47.512;19.054;2022-11-04T10:56:48;99790.88;;;10.25;86.81
75891;BME280;64571;47.512;19.054;2022-11-04T10:59:59;99806.00;;;10.32;87.22
75891;BME280;64571;47.512;19.054;2022-11-04T11:03:02;99801.84;;;10.44;87.07
75891;BME280;64571;47.512;19.054;2022-11-04T11:06:21;99783.22;;;10.44;87.49
75891;BME280;64571;47.512;19.054;2022-11-04T11:09:29;99783.56;;;10.43;87.05
75891;BME280;64571;47.512;19.054;2022-11-04T11:12:34;99759.06;;;10.45;87.03
75891;BME280;64571;47.512;19.054;2022-11-04T11:16:10;99773.75;;;10.59;86.65
75891;BME280;64571;47.512;19.054;2022-11-04T11:19:20;99772.69;;;10.69;86.52
75891;BME280;64571;47.512;19.054;2022-11-04T11:22:36;99775.00;;;10.75;86.22
75891;BME280;64571;47.512;19.054;2022-11-04T11:25:42;99762.78;;;10.76;86.28
75891;BME280;64571;47.512;19.054;2022-11-04T11:28:52;99755.59;;;10.61;85.93
75891;BME280;64571;47.512;19.054;2022-11-04T11:32:01;99767.19;;;10.77;85.95
75891;BME280;64571;47.512;19.054;2022-11-04T11:35:03;99772.00;;;10.85;86.09
75891;BME280;64571;47.512;19.054;2022-11-04T11:38:16;99765.16;;;10.92;86.44
75891;BME280;64571;47.512;19.054;2022-11-04T11:41:20;99761.25;;;10.93;86.32
75891;BME280;64571;47.512;19.054;2022-11-04T11:44:33;99742.53;;;10.84;86.80
75891;BME280;64571;47.512;19.054;2022-11-04T11:47:39;99734.37;;;10.88;86.90
75891;BME280;64571;47.512;19.054;2022-11-04T11:50:53;99753.16;;;11.05;86.82
75891;BME280;64571;47.512;19.054;2022-11-04T11:54:28;99752.16;;;11.01;86.63
75891;BME280;64571;47.512;19.054;2022-11-04T11:57:43;99740.81;;;10.97;85.44
75891;BME280;64571;47.512;19.054;2022-11-04T12:04:29;99730.31;;;10.85;85.34
75891;BME280;64571;47.512;19.054;2022-11-04T12:08:03;99699.06;;;10.88;86.16
75891;BME280;64571;47.512;19.054;2022-11-04T12:11:36;99709.97;;;11.07;86.90
75891;BME280;64571;47.512;19.054;2022-11-04T12:14:47;99715.38;;;11.04;85.90
75891;BME280;64571;47.512;19.054;2022-11-04T12:24:40;99691.69;;;11.15;85.51
75891;BME280;64571;47.512;19.054;2022-11-04T12:28:21;99679.84;;;11.01;85.36
75891;BME280;64571;47.512;19.054;2022-11-04T12:31:33;99691.69;;;11.15;85.00
75891;BME280;64571;47.512;19.054;2022-11-04T12:41:26;99653.84;;;11.36;84.69
75891;BME280;64571;47.512;19.054;2022-11-04T13:08:52;99635.22;;;11.54;85.26
75891;BME280;64571;47.512;19.054;2022-11-04T13:12:10;99629.34;;;11.56;85.46
75891;BME280;64571;47.512;19.054;2022-11-04T13:15:21;99627.87;;;11.58;85.20
75891;BME280;64571;47.512;19.054;2022-11-04T13:18:27;99620.84;;;11.61;84.84
75891;BME280;64571;47.512;19.054;2022-11-04T13:21:35;99628.22;;;11.65;84.72
75891;BME280;64571;47.512;19.054;2022-11-04T13:24:53;99624.12;;;11.63;85.02
75891;BME280;64571;47.512;19.054;2022-11-04T13:27:57;99605.75;;;11.45;85.55
75891;BME280;64571;47.512;19.054;2022-11-04T13:37:51;99615.88;;;11.40;86.14
75891;BME280;64571;47.512;19.054;2022-11-04T13:44:24;99613.59;;;11.43;86.26
75891;BME280;64571;47.512;19.054;2022-11-04T13:47:49;99606.06;;;11.43;86.34
75891;BME280;64571;47.512;19.054;2022-11-04T13:51:07;99605.41;;;11.46;86.33
75891;BME280;64571;47.512;19.054;2022-11-04T13:54:34;99593.28;;;11.33;86.23
75891;BME280;64571;47.512;19.054;2022-11-04T13:58:14;99590.34;;;11.38;86.11
75891;BME280;64571;47.512;19.054;2022-11-04T14:04:29;99591.31;;;11.43;86.33
75891;BME280;64571;47.512;19.054;2022-11-04T14:11:05;99598.88;;;11.51;86.22
75891;BME280;64571;47.512;19.054;2022-11-04T14:14:16;99578.72;;;11.36;86.41
75891;BME280;64571;47.512;19.054;2022-11-04T14:20:35;99597.09;;;11.55;86.47
75891;BME280;64571;47.512;19.054;2022-11-04T14:23:41;99584.97;;;11.51;86.56
75891;BME280;64571;47.512;19.054;2022-11-04T14:26:45;99589.22;;;11.57;86.52
75891;BME280;64571;47.512;19.054;2022-11-04T14:29:49;99586.44;;;11.57;86.62
75891;BME280;64571;47.512;19.054;2022-11-04T14:32:55;99562.22;;;11.49;86.60
75891;BME280;64571;47.512;19.054;2022-11-04T14:39:23;99572.22;;;11.58;86.77
75891;BME280;64571;47.512;19.054;2022-11-04T14:42:49;99571.72;;;11.65;87.00
75891;BME280;64571;47.512;19.054;2022-11-04T14:45:53;99577.13;;;11.61;86.80
75891;BME280;64571;47.512;19.054;2022-11-04T14:48:57;99571.06;;;11.59;86.89
75891;BME280;64571;47.512;19.054;2022-11-04T14:52:04;99562.25;;;11.57;86.82
75891;BME280;64571;47.512;19.054;2022-11-04T14:58:24;99560.44;;;11.53;86.83
75891;BME280;64571;47.512;19.054;2022-11-04T15:01:30;99550.44;;;11.52;86.86
75891;BME280;64571;47.512;19.054;2022-11-04T15:04:36;99548.78;;;11.51;86.87
75891;BME280;64571;47.512;19.054;2022-11-04T15:07:39;99542.75;;;11.49;86.77
75891;BME280;64571;47.512;19.054;2022-11-04T15:10:48;99558.13;;;11.55;86.75
75891;BME280;64571;47.512;19.054;2022-11-04T15:13:56;99562.25;;;11.57;86.99
75891;BME280;64571;47.512;19.054;2022-11-04T15:17:00;99554.19;;;11.56;86.88
75891;BME280;64571;47.512;19.054;2022-11-04T15:20:04;99552.75;;;11.58;86.98
75891;BME280;64571;47.512;19.054;2022-11-04T15:23:12;99532.75;;;11.48;87.35
75891;BME280;64571;47.512;19.054;2022-11-04T15:26:25;99555.53;;;11.58;87.19
75891;BME280;64571;47.512;19.054;2022-11-04T15:29:32;99553.03;;;11.57;87.43
75891;BME280;64571;47.512;19.054;2022-11-04T15:32:34;99550.78;;;11.59;87.47
75891;BME280;64571;47.512;19.054;2022-11-04T15:35:36;99543.56;;;11.58;87.54
75891;BME280;64571;47.512;19.054;2022-11-04T15:38:49;99530.13;;;11.43;87.68
75891;BME280;64571;47.512;19.054;2022-11-04T15:42:01;99533.41;;;11.45;87.88
75891;BME280;64571;47.512;19.054;2022-11-04T15:45:50;99540.28;;;11.56;88.10
75891;BME280;64571;47.512;19.054;2022-11-04T15:49:01;99544.22;;;11.55;87.92
75891;BME280;64571;47.512;19.054;2022-11-04T15:52:05;99526.84;;;11.40;87.90
75891;BME280;64571;47.512;19.054;2022-11-04T15:55:19;99542.22;;;11.47;88.07
75891;BME280;64571;47.512;19.054;2022-11-04T15:58:22;99540.09;;;11.44;88.12
75891;BME280;64571;47.512;19.054;2022-11-04T16:01:26;99546.97;;;11.46;88.19
75891;BME280;64571;47.512;19.054;2022-11-04T16:04:30;99555.34;;;11.46;88.50
75891;BME280;64571;47.512;19.054;2022-11-04T16:07:36;99551.91;;;11.49;88.53
75891;BME280;64571;47.512;19.054;2022-11-04T16:10:39;99556.66;;;11.49;88.65
75891;BME280;64571;47.512;19.054;2022-11-04T16:13:43;99542.03;;;11.34;88.65
75891;BME280;64571;47.512;19.054;2022-11-04T16:16:48;99549.78;;;11.46;88.49
75891;BME280;64571;47.512;19.054;2022-11-04T16:19:54;99547.47;;;11.39;88.65
75891;BME280;64571;47.512;19.054;2022-11-04T16:23:01;99549.28;;;11.44;88.59
75891;BME280;64571;47.512;19.054;2022-11-04T16:26:05;99558.78;;;11.52;88.18
75891;BME280;64571;47.512;19.054;2022-11-04T16:29:13;99548.78;;;11.42;88.16
75891;BME280;64571;47.512;19.054;2022-11-04T16:32:24;99538.81;;;11.41;88.22
75891;BME280;64571;47.512;19.054;2022-11-04T16:35:27;99563.22;;;11.53;88.38
75891;BME280;64571;47.512;19.054;2022-11-04T16:38:29;99534.69;;;11.38;87.98
75891;BME280;64571;47.512;19.054;2022-11-04T16:41:35;99556.00;;;11.52;88.14
75891;BME280;64571;47.512;19.054;2022-11-04T16:44:38;99555.69;;;11.53;88.09
75891;BME280;64571;47.512;19.054;2022-11-04T16:47:40;99556.50;;;11.54;88.03
75891;BME280;64571;47.512;19.054;2022-11-04T16:50:43;99566.47;;;11.55;87.92
75891;BME280;64571;47.512;19.054;2022-11-04T16:53:52;99552.72;;;11.50;88.02
75891;BME280;64571;47.512;19.054;2022-11-04T16:56:55;99555.00;;;11.48;88.39
75891;BME280;64571;47.512;19.054;2022-11-04T16:59:58;99543.53;;;11.40;88.32
75891;BME280;64571;47.512;19.054;2022-11-04T17:03:07;99552.09;;;11.53;88.27
75891;BME280;64571;47.512;19.054;2022-11-04T17:06:15;99533.88;;;11.47;88.06
75891;BME280;64571;47.512;19.054;2022-11-04T17:09:21;99511.94;;;11.36;88.13
75891;BME280;64571;47.512;19.054;2022-11-04T17:12:24;99515.06;;;11.44;88.24
75891;BME280;64571;47.512;19.054;2022-11-04T17:15:26;99522.75;;;11.38;88.27
75891;BME280;64571;47.512;19.054;2022-11-04T17:18:30;99543.22;;;11.51;88.58
75891;BME280;64571;47.512;19.054;2022-11-04T17:21:33;99553.72;;;11.54;88.40
75891;BME280;64571;47.512;19.054;2022-11-04T17:24:35;99545.19;;;11.50;88.47
75891;BME280;64571;47.512;19.054;2022-11-04T17:27:38;99523.56;;;11.38;88.53
75891;BME280;64571;47.512;19.054;2022-11-04T17:30:43;99544.56;;;11.53;88.59
75891;BME280;64571;47.512;19.054;2022-11-04T17:33:46;99546.34;;;11.58;88.62
75891;BME280;64571;47.512;19.054;2022-11-04T17:36:48;99539.47;;;11.55;88.57
75891;BME280;64571;47.512;19.054;2022-11-04T17:39:51;99545.84;;;11.56;88.56
75891;BME280;64571;47.512;19.054;2022-11-04T17:42:53;99532.91;;;11.51;88.38
75891;BME280;64571;47.512;19.054;2022-11-04T17:46:16;99531.09;;;11.47;88.50
75891;BME280;64571;47.512;19.054;2022-11-04T17:49:38;99520.94;;;11.42;88.43
75891;BME280;64571;47.512;19.054;2022-11-04T17:52:40;99530.94;;;11.43;88.48
75891;BME280;64571;47.512;19.054;2022-11-04T17:55:46;99544.22;;;11.55;88.55
75891;BME280;64571;47.512;19.054;2022-11-04T17:58:50;99525.88;;;11.45;88.29
75891;BME280;64571;47.512;19.054;2022-11-04T18:01:54;99544.69;;;11.57;88.38
75891;BME280;64571;47.512;19.054;2022-11-04T18:04:57;99537.50;;;11.56;88.17
75891;BME280;64571;47.512;19.054;2022-11-04T18:07:59;99519.97;;;11.47;88.22